sensor_id;sensor_type;location;lat;lon;timestamp;P1;durP1;ratioP1;P2;durP2;ratioP2
27019;SDS011;76819;49.098;11.826;2024-03-08T00:04:28;62.47;;;36.08;;
27019;SDS011;76819;49.098;11.826;2024-03-08T00:09:32;61.08;;;35.38;;
27019;SDS011;76819;49.098;11.826;2024-03-08T00:14:35;61.20;;;36.55;;
27019;SDS011;76819;49.098;11.826;2024-03-08T00:19:38;66.65;;;37.10;;
27019;SDS011;76819;49.098;11.826;2024-03-08T00:24:44;68.75;;;36.63;;
27019;SDS011;76819;49.098;11.826;2024-03-08T00:29:46;68.38;;;36.05;;
27019;SDS011;76819;49.098;11.826;2024-03-08T00:34:49;69.82;;;38.10;;
27019;SDS011;76819;49.098;11.826;2024-03-08T00:39:54;70.57;;;38.50;;
27019;SDS011;76819;49.098;11.826;2024-03-08T00:44:57;66.40;;;38.33;;
27019;SDS011;76819;49.098;11.826;2024-03-08T00:50:00;64.53;;;38.22;;
27019;SDS011;76819;49.098;11.826;2024-03-08T00:55:07;63.67;;;36.53;;
27019;SDS011;76819;49.098;11.826;2024-03-08T01:00:12;64.70;;;37.53;;
27019;SDS011;76819;49.098;11.826;2024-03-08T01:05:15;66.53;;;36.97;;
27019;SDS011;76819;49.098;11.826;2024-03-08T01:10:19;64.05;;;36.03;;
27019;SDS011;76819;49.098;11.826;2024-03-08T01:15:22;68.88;;;38.63;;
27019;SDS011;76819;49.098;11.826;2024-03-08T01:20:25;62.22;;;37.13;;
27019;SDS011;76819;49.098;11.826;2024-03-08T01:25:29;61.20;;;36.03;;
27019;SDS011;76819;49.098;11.826;2024-03-08T01:30:33;61.90;;;37.25;;
27019;SDS011;76819;49.098;11.826;2024-03-08T01:35:38;64.75;;;36.97;;
27019;SDS011;76819;49.098;11.826;2024-03-08T01:40:44;70.18;;;39.55;;
27019;SDS011;76819;49.098;11.826;2024-03-08T01:45:47;66.00;;;36.15;;
27019;SDS011;76819;49.098;11.826;2024-03-08T01:50:50;62.60;;;35.63;;
27019;SDS011;76819;49.098;11.826;2024-03-08T01:55:56;64.10;;;37.83;;
27019;SDS011;76819;49.098;11.826;2024-03-08T02:00:59;63.05;;;38.60;;
27019;SDS011;76819;49.098;11.826;2024-03-08T02:06:06;65.88;;;37.80;;
27019;SDS011;76819;49.098;11.826;2024-03-08T02:11:13;68.82;;;39.47;;
27019;SDS011;76819;49.098;11.826;2024-03-08T02:16:20;64.93;;;37.30;;
27019;SDS011;76819;49.098;11.826;2024-03-08T02:21:25;65.45;;;38.05;;
27019;SDS011;76819;49.098;11.826;2024-03-08T02:26:28;64.15;;;37.25;;
27019;SDS011;76819;49.098;11.826;2024-03-08T02:31:30;69.05;;;37.30;;
27019;SDS011;76819;49.098;11.826;2024-03-08T02:36:34;65.85;;;38.58;;
27019;SDS011;76819;49.098;11.826;2024-03-08T02:41:37;71.95;;;40.25;;
27019;SDS011;76819;49.098;11.826;2024-03-08T02:46:40;61.55;;;35.90;;
27019;SDS011;76819;49.098;11.826;2024-03-08T02:51:44;68.63;;;38.00;;
27019;SDS011;76819;49.098;11.826;2024-03-08T02:56:47;61.75;;;36.50;;
27019;SDS011;76819;49.098;11.826;2024-03-08T03:01:51;68.03;;;37.40;;
27019;SDS011;76819;49.098;11.826;2024-03-08T03:06:55;65.95;;;36.85;;
27019;SDS011;76819;49.098;11.826;2024-03-08T03:11:58;66.53;;;37.40;;
27019;SDS011;76819;49.098;11.826;2024-03-08T03:17:00;73.85;;;39.33;;
27019;SDS011;76819;49.098;11.826;2024-03-08T03:22:05;66.03;;;38.35;;
27019;SDS011;76819;49.098;11.826;2024-03-08T03:27:10;67.22;;;38.63;;
27019;SDS011;76819;49.098;11.826;2024-03-08T03:32:13;70.80;;;39.03;;
27019;SDS011;76819;49.098;11.826;2024-03-08T03:37:18;75.07;;;40.35;;
27019;SDS011;76819;49.098;11.826;2024-03-08T03:42:20;69.10;;;39.00;;
27019;SDS011;76819;49.098;11.826;2024-03-08T03:47:23;74.32;;;41.50;;
27019;SDS011;76819;49.098;11.826;2024-03-08T03:52:27;67.13;;;39.90;;
27019;SDS011;76819;49.098;11.826;2024-03-08T03:57:30;67.50;;;38.95;;
27019;SDS011;76819;49.098;11.826;2024-03-08T04:02:32;70.30;;;39.72;;
27019;SDS011;76819;49.098;11.826;2024-03-08T04:07:37;69.85;;;39.20;;
27019;SDS011;76819;49.098;11.826;2024-03-08T04:12:40;70.68;;;41.53;;
27019;SDS011;76819;49.098;11.826;2024-03-08T04:17:42;70.60;;;37.58;;
27019;SDS011;76819;49.098;11.826;2024-03-08T04:22:48;64.72;;;38.42;;
27019;SDS011;76819;49.098;11.826;2024-03-08T04:27:51;69.45;;;39.88;;
27019;SDS011;76819;49.098;11.826;2024-03-08T04:32:54;67.88;;;39.60;;
27019;SDS011;76819;49.098;11.826;2024-03-08T04:37:58;71.55;;;40.65;;
27019;SDS011;76819;49.098;11.826;2024-03-08T04:43:00;78.05;;;41.83;;
27019;SDS011;76819;49.098;11.826;2024-03-08T04:48:04;73.28;;;41.13;;
27019;SDS011;76819;49.098;11.826;2024-03-08T04:53:08;68.13;;;40.10;;
27019;SDS011;76819;49.098;11.826;2024-03-08T04:58:11;71.65;;;40.03;;
27019;SDS011;76819;49.098;11.826;2024-03-08T05:03:14;70.75;;;40.90;;
27019;SDS011;76819;49.098;11.826;2024-03-08T05:08:18;70.63;;;39.70;;
27019;SDS011;76819;49.098;11.826;2024-03-08T05:13:20;78.25;;;40.28;;
27019;SDS011;76819;49.098;11.826;2024-03-08T05:18:24;77.25;;;42.38;;
27019;SDS011;76819;49.098;11.826;2024-03-08T05:23:29;75.00;;;41.83;;
27019;SDS011;76819;49.098;11.826;2024-03-08T05:28:31;80.50;;;43.35;;
27019;SDS011;76819;49.098;11.826;2024-03-08T05:33:34;82.10;;;44.72;;
27019;SDS011;76819;49.098;11.826;2024-03-08T05:38:38;87.57;;;43.80;;
27019;SDS011;76819;49.098;11.826;2024-03-08T05:43:42;80.60;;;42.83;;
27019;SDS011;76819;49.098;11.826;2024-03-08T05:48:45;81.93;;;44.20;;
27019;SDS011;76819;49.098;11.826;2024-03-08T05:53:49;88.32;;;45.10;;
27019;SDS011;76819;49.098;11.826;2024-03-08T05:58:54;80.57;;;44.83;;
27019;SDS011;76819;49.098;11.826;2024-03-08T06:03:57;80.95;;;44.88;;
27019;SDS011;76819;49.098;11.826;2024-03-08T06:09:02;89.40;;;46.10;;
27019;SDS011;76819;49.098;11.826;2024-03-08T06:14:10;84.28;;;45.58;;
27019;SDS011;76819;49.098;11.826;2024-03-08T06:19:13;83.38;;;45.15;;
27019;SDS011;76819;49.098;11.826;2024-03-08T06:24:18;86.10;;;45.15;;
27019;SDS011;76819;49.098;11.826;2024-03-08T06:29:21;90.05;;;47.42;;
27019;SDS011;76819;49.098;11.826;2024-03-08T06:34:23;95.10;;;49.55;;
27019;SDS011;76819;49.098;11.826;2024-03-08T06:39:27;84.45;;;45.88;;
27019;SDS011;76819;49.098;11.826;2024-03-08T06:44:32;85.03;;;45.17;;
27019;SDS011;76819;49.098;11.826;2024-03-08T06:49:35;78.97;;;43.55;;
27019;SDS011;76819;49.098;11.826;2024-03-08T06:54:39;84.97;;;44.70;;
27019;SDS011;76819;49.098;11.826;2024-03-08T06:59:42;82.25;;;44.30;;
27019;SDS011;76819;49.098;11.826;2024-03-08T07:04:47;76.43;;;42.75;;
27019;SDS011;76819;49.098;11.826;2024-03-08T07:09:53;75.45;;;41.30;;
27019;SDS011;76819;49.098;11.826;2024-03-08T07:14:57;77.47;;;42.60;;
27019;SDS011;76819;49.098;11.826;2024-03-08T07:20:00;81.80;;;43.33;;
27019;SDS011;76819;49.098;11.826;2024-03-08T07:25:10;74.63;;;41.35;;
27019;SDS011;76819;49.098;11.826;2024-03-08T07:30:21;82.65;;;41.00;;
27019;SDS011;76819;49.098;11.826;2024-03-08T07:35:44;79.20;;;40.92;;
27019;SDS011;76819;49.098;11.826;2024-03-08T07:40:49;67.15;;;38.38;;
27019;SDS011;76819;49.098;11.826;2024-03-08T07:45:52;67.85;;;38.72;;
27019;SDS011;76819;49.098;11.826;2024-03-08T07:50:56;62.65;;;36.33;;
27019;SDS011;76819;49.098;11.826;2024-03-08T07:56:00;62.50;;;34.72;;
27019;SDS011;76819;49.098;11.826;2024-03-08T08:01:03;57.72;;;33.03;;
27019;SDS011;76819;49.098;11.826;2024-03-08T08:06:06;59.05;;;33.72;;
27019;SDS011;76819;49.098;11.826;2024-03-08T08:11:10;53.17;;;32.42;;
27019;SDS011;76819;49.098;11.826;2024-03-08T08:16:13;56.08;;;31.45;;
27019;SDS011;76819;49.098;11.826;2024-03-08T08:21:16;50.67;;;29.90;;
27019;SDS011;76819;49.098;11.826;2024-03-08T08:26:20;51.58;;;30.05;;
27019;SDS011;76819;49.098;11.826;2024-03-08T08:31:23;48.42;;;27.33;;
27019;SDS011;76819;49.098;11.826;2024-03-08T08:36:26;53.30;;;27.42;;
27019;SDS011;76819;49.098;11.826;2024-03-08T08:41:32;46.00;;;26.40;;
27019;SDS011;76819;49.098;11.826;2024-03-08T08:46:34;43.60;;;26.60;;
27019;SDS011;76819;49.098;11.826;2024-03-08T08:51:42;44.35;;;26.70;;
27019;SDS011;76819;49.098;11.826;2024-03-08T08:56:52;44.80;;;27.30;;
27019;SDS011;76819;49.098;11.826;2024-03-08T09:01:55;41.70;;;25.25;;
27019;SDS011;76819;49.098;11.826;2024-03-08T09:06:57;43.00;;;24.67;;
27019;SDS011;76819;49.098;11.826;2024-03-08T09:12:02;38.33;;;22.67;;
27019;SDS011;76819;49.098;11.826;2024-03-08T09:17:04;38.35;;;22.10;;
27019;SDS011;76819;49.098;11.826;2024-03-08T09:22:09;37.97;;;21.73;;
27019;SDS011;76819;49.098;11.826;2024-03-08T09:27:13;34.08;;;21.60;;
27019;SDS011;76819;49.098;11.826;2024-03-08T09:32:16;34.10;;;21.08;;
27019;SDS011;76819;49.098;11.826;2024-03-08T09:37:19;32.67;;;20.65;;
27019;SDS011;76819;49.098;11.826;2024-03-08T09:42:23;30.35;;;19.55;;
27019;SDS011;76819;49.098;11.826;2024-03-08T09:47:25;30.63;;;19.55;;
27019;SDS011;76819;49.098;11.826;2024-03-08T09:52:35;34.22;;;20.25;;
27019;SDS011;76819;49.098;11.826;2024-03-08T09:57:40;28.58;;;17.42;;
27019;SDS011;76819;49.098;11.826;2024-03-08T10:02:45;28.90;;;18.33;;
27019;SDS011;76819;49.098;11.826;2024-03-08T10:07:47;26.25;;;17.42;;
27019;SDS011;76819;49.098;11.826;2024-03-08T10:12:51;26.05;;;16.55;;
27019;SDS011;76819;49.098;11.826;2024-03-08T10:17:55;27.10;;;16.52;;
27019;SDS011;76819;49.098;11.826;2024-03-08T10:22:58;24.98;;;16.83;;
27019;SDS011;76819;49.098;11.826;2024-03-08T10:28:12;23.63;;;15.35;;
27019;SDS011;76819;49.098;11.826;2024-03-08T10:33:15;26.95;;;17.65;;
27019;SDS011;76819;49.098;11.826;2024-03-08T10:38:18;24.45;;;15.20;;
27019;SDS011;76819;49.098;11.826;2024-03-08T10:43:26;25.17;;;16.45;;
27019;SDS011;76819;49.098;11.826;2024-03-08T10:48:31;26.85;;;16.52;;
27019;SDS011;76819;49.098;11.826;2024-03-08T10:53:40;21.20;;;13.98;;
27019;SDS011;76819;49.098;11.826;2024-03-08T10:58:44;23.75;;;14.55;;
27019;SDS011;76819;49.098;11.826;2024-03-08T11:03:49;23.90;;;14.57;;
27019;SDS011;76819;49.098;11.826;2024-03-08T11:08:55;22.20;;;13.70;;
27019;SDS011;76819;49.098;11.826;2024-03-08T11:14:01;20.73;;;14.15;;
27019;SDS011;76819;49.098;11.826;2024-03-08T11:19:06;22.67;;;15.68;;
27019;SDS011;76819;49.098;11.826;2024-03-08T11:24:25;24.73;;;15.52;;
27019;SDS011;76819;49.098;11.826;2024-03-08T11:29:36;24.60;;;15.25;;
27019;SDS011;76819;49.098;11.826;2024-03-08T11:34:42;24.38;;;15.65;;
27019;SDS011;76819;49.098;11.826;2024-03-08T11:39:46;22.85;;;15.25;;
27019;SDS011;76819;49.098;11.826;2024-03-08T11:44:52;20.40;;;14.05;;
27019;SDS011;76819;49.098;11.826;2024-03-08T11:49:55;18.85;;;14.00;;
27019;SDS011;76819;49.098;11.826;2024-03-08T11:54:58;21.50;;;14.13;;
27019;SDS011;76819;49.098;11.826;2024-03-08T12:00:02;20.27;;;12.77;;
27019;SDS011;76819;49.098;11.826;2024-03-08T12:05:08;21.60;;;15.23;;
27019;SDS011;76819;49.098;11.826;2024-03-08T12:10:15;21.13;;;13.98;;
27019;SDS011;76819;49.098;11.826;2024-03-08T12:15:21;18.13;;;12.10;;
27019;SDS011;76819;49.098;11.826;2024-03-08T12:20:25;16.60;;;12.80;;
27019;SDS011;76819;49.098;11.826;2024-03-08T12:25:31;19.60;;;12.90;;
27019;SDS011;76819;49.098;11.826;2024-03-08T12:30:43;18.58;;;12.45;;
27019;SDS011;76819;49.098;11.826;2024-03-08T12:35:52;16.48;;;12.00;;
27019;SDS011;76819;49.098;11.826;2024-03-08T12:40:58;19.92;;;12.27;;
27019;SDS011;76819;49.098;11.826;2024-03-08T12:46:02;15.27;;;11.55;;
27019;SDS011;76819;49.098;11.826;2024-03-08T12:51:07;13.48;;;10.73;;
27019;SDS011;76819;49.098;11.826;2024-03-08T12:56:10;13.98;;;10.90;;
27019;SDS011;76819;49.098;11.826;2024-03-08T13:01:14;12.57;;;10.63;;
27019;SDS011;76819;49.098;11.826;2024-03-08T13:06:19;14.73;;;10.63;;
27019;SDS011;76819;49.098;11.826;2024-03-08T13:11:23;11.48;;;10.18;;
27019;SDS011;76819;49.098;11.826;2024-03-08T13:16:27;12.20;;;9.70;;
27019;SDS011;76819;49.098;11.826;2024-03-08T13:21:31;11.23;;;9.40;;
27019;SDS011;76819;49.098;11.826;2024-03-08T13:26:34;9.82;;;8.52;;
27019;SDS011;76819;49.098;11.826;2024-03-08T13:31:38;10.63;;;8.02;;
27019;SDS011;76819;49.098;11.826;2024-03-08T13:36:41;8.82;;;7.57;;
27019;SDS011;76819;49.098;11.826;2024-03-08T13:41:45;8.70;;;7.07;;
27019;SDS011;76819;49.098;11.826;2024-03-08T13:46:50;8.13;;;6.85;;
27019;SDS011;76819;49.098;11.826;2024-03-08T13:51:54;8.57;;;6.75;;
27019;SDS011;76819;49.098;11.826;2024-03-08T13:57:00;7.40;;;6.22;;
27019;SDS011;76819;49.098;11.826;2024-03-08T14:02:06;8.30;;;6.10;;
27019;SDS011;76819;49.098;11.826;2024-03-08T14:07:14;8.32;;;6.95;;
27019;SDS011;76819;49.098;11.826;2024-03-08T14:12:17;7.78;;;6.97;;
27019;SDS011;76819;49.098;11.826;2024-03-08T14:17:23;7.90;;;6.70;;
27019;SDS011;76819;49.098;11.826;2024-03-08T14:22:28;12.38;;;6.93;;
27019;SDS011;76819;49.098;11.826;2024-03-08T14:27:32;7.80;;;6.70;;
27019;SDS011;76819;49.098;11.826;2024-03-08T14:32:36;8.07;;;6.45;;
27019;SDS011;76819;49.098;11.826;2024-03-08T14:37:39;11.23;;;7.47;;
27019;SDS011;76819;49.098;11.826;2024-03-08T14:42:44;9.43;;;7.47;;
27019;SDS011;76819;49.098;11.826;2024-03-08T14:47:48;10.10;;;7.55;;
27019;SDS011;76819;49.098;11.826;2024-03-08T14:52:53;9.25;;;7.22;;
27019;SDS011;76819;49.098;11.826;2024-03-08T14:57:55;9.02;;;6.70;;
27019;SDS011;76819;49.098;11.826;2024-03-08T15:02:59;10.68;;;6.55;;
27019;SDS011;76819;49.098;11.826;2024-03-08T15:08:03;7.13;;;6.10;;
27019;SDS011;76819;49.098;11.826;2024-03-08T15:13:12;7.43;;;6.35;;
27019;SDS011;76819;49.098;11.826;2024-03-08T15:18:25;7.05;;;6.30;;
27019;SDS011;76819;49.098;11.826;2024-03-08T15:23:33;8.32;;;5.72;;
27019;SDS011;76819;49.098;11.826;2024-03-08T15:28:36;7.75;;;6.30;;
27019;SDS011;76819;49.098;11.826;2024-03-08T15:33:40;7.18;;;6.10;;
27019;SDS011;76819;49.098;11.826;2024-03-08T15:38:49;7.28;;;6.38;;
27019;SDS011;76819;49.098;11.826;2024-03-08T15:43:53;7.45;;;6.28;;
27019;SDS011;76819;49.098;11.826;2024-03-08T15:48:58;7.55;;;6.60;;
27019;SDS011;76819;49.098;11.826;2024-03-08T15:54:01;8.07;;;6.30;;
27019;SDS011;76819;49.098;11.826;2024-03-08T15:59:05;7.63;;;6.60;;
27019;SDS011;76819;49.098;11.826;2024-03-08T16:04:10;8.15;;;7.15;;
27019;SDS011;76819;49.098;11.826;2024-03-08T16:09:13;9.80;;;7.45;;
27019;SDS011;76819;49.098;11.826;2024-03-08T16:14:17;9.35;;;6.60;;
27019;SDS011;76819;49.098;11.826;2024-03-08T16:19:23;11.25;;;7.15;;
27019;SDS011;76819;49.098;11.826;2024-03-08T16:24:27;9.48;;;7.38;;
27019;SDS011;76819;49.098;11.826;2024-03-08T16:29:33;8.38;;;7.07;;
27019;SDS011;76819;49.098;11.826;2024-03-08T16:34:37;10.38;;;6.90;;
27019;SDS011;76819;49.098;11.826;2024-03-08T16:39:40;10.65;;;7.88;;
27019;SDS011;76819;49.098;11.826;2024-03-08T16:44:42;10.88;;;8.07;;
27019;SDS011;76819;49.098;11.826;2024-03-08T16:49:46;15.05;;;11.55;;
27019;SDS011;76819;49.098;11.826;2024-03-08T16:54:49;17.23;;;12.48;;
27019;SDS011;76819;49.098;11.826;2024-03-08T17:00:01;20.48;;;14.40;;
27019;SDS011;76819;49.098;11.826;2024-03-08T17:05:16;23.02;;;15.15;;
27019;SDS011;76819;49.098;11.826;2024-03-08T17:10:18;22.45;;;14.63;;
27019;SDS011;76819;49.098;11.826;2024-03-08T17:15:22;22.25;;;14.60;;
27019;SDS011;76819;49.098;11.826;2024-03-08T17:20:26;24.40;;;16.15;;
27019;SDS011;76819;49.098;11.826;2024-03-08T17:25:31;24.13;;;15.80;;
27019;SDS011;76819;49.098;11.826;2024-03-08T17:30:34;24.55;;;16.27;;
27019;SDS011;76819;49.098;11.826;2024-03-08T17:35:41;30.02;;;16.60;;
27019;SDS011;76819;49.098;11.826;2024-03-08T17:40:43;24.73;;;16.33;;
27019;SDS011;76819;49.098;11.826;2024-03-08T17:45:46;30.40;;;17.33;;
27019;SDS011;76819;49.098;11.826;2024-03-08T17:50:50;27.10;;;16.73;;
27019;SDS011;76819;49.098;11.826;2024-03-08T17:55:55;26.25;;;17.40;;
27019;SDS011;76819;49.098;11.826;2024-03-08T18:00:58;29.08;;;17.40;;
27019;SDS011;76819;49.098;11.826;2024-03-08T18:06:02;27.83;;;18.58;;
27019;SDS011;76819;49.098;11.826;2024-03-08T18:11:07;26.30;;;17.58;;
27019;SDS011;76819;49.098;11.826;2024-03-08T18:16:10;31.85;;;18.30;;
27019;SDS011;76819;49.098;11.826;2024-03-08T18:21:14;31.23;;;19.30;;
27019;SDS011;76819;49.098;11.826;2024-03-08T18:26:17;30.52;;;19.00;;
27019;SDS011;76819;49.098;11.826;2024-03-08T18:31:19;32.97;;;19.48;;
27019;SDS011;76819;49.098;11.826;2024-03-08T18:36:27;33.55;;;19.67;;
27019;SDS011;76819;49.098;11.826;2024-03-08T18:41:31;32.28;;;20.10;;
27019;SDS011;76819;49.098;11.826;2024-03-08T18:46:35;35.30;;;21.02;;
27019;SDS011;76819;49.098;11.826;2024-03-08T18:51:41;34.35;;;21.38;;
27019;SDS011;76819;49.098;11.826;2024-03-08T18:56:44;36.60;;;22.48;;
27019;SDS011;76819;49.098;11.826;2024-03-08T19:01:48;37.63;;;21.83;;
27019;SDS011;76819;49.098;11.826;2024-03-08T19:06:53;36.17;;;22.85;;
27019;SDS011;76819;49.098;11.826;2024-03-08T19:11:56;39.03;;;23.20;;
27019;SDS011;76819;49.098;11.826;2024-03-08T19:17:01;42.42;;;22.35;;
27019;SDS011;76819;49.098;11.826;2024-03-08T19:22:07;38.42;;;22.35;;
27019;SDS011;76819;49.098;11.826;2024-03-08T19:27:10;37.10;;;22.15;;
27019;SDS011;76819;49.098;11.826;2024-03-08T19:32:13;38.53;;;22.85;;
27019;SDS011;76819;49.098;11.826;2024-03-08T19:37:17;39.67;;;22.50;;
27019;SDS011;76819;49.098;11.826;2024-03-08T19:42:21;46.60;;;24.45;;
27019;SDS011;76819;49.098;11.826;2024-03-08T19:47:26;40.47;;;22.75;;
27019;SDS011;76819;49.098;11.826;2024-03-08T19:52:32;43.28;;;24.50;;
27019;SDS011;76819;49.098;11.826;2024-03-08T20:02:42;42.15;;;25.17;;
27019;SDS011;76819;49.098;11.826;2024-03-08T20:07:47;42.35;;;22.88;;
27019;SDS011;76819;49.098;11.826;2024-03-08T20:12:53;38.03;;;22.95;;
27019;SDS011;76819;49.098;11.826;2024-03-08T20:17:58;41.40;;;23.60;;
27019;SDS011;76819;49.098;11.826;2024-03-08T20:23:04;37.78;;;23.15;;
27019;SDS011;76819;49.098;11.826;2024-03-08T20:28:09;39.10;;;23.83;;
27019;SDS011;76819;49.098;11.826;2024-03-08T20:33:12;38.15;;;23.25;;
27019;SDS011;76819;49.098;11.826;2024-03-08T20:38:16;42.38;;;25.05;;
27019;SDS011;76819;49.098;11.826;2024-03-08T20:43:22;42.25;;;24.52;;
27019;SDS011;76819;49.098;11.826;2024-03-08T20:48:25;39.40;;;23.40;;
27019;SDS011;76819;49.098;11.826;2024-03-08T20:53:30;40.80;;;23.85;;
27019;SDS011;76819;49.098;11.826;2024-03-08T20:58:33;41.35;;;23.45;;
27019;SDS011;76819;49.098;11.826;2024-03-08T21:03:35;37.55;;;22.42;;
27019;SDS011;76819;49.098;11.826;2024-03-08T21:08:40;37.15;;;22.08;;
27019;SDS011;76819;49.098;11.826;2024-03-08T21:13:43;45.08;;;23.23;;
27019;SDS011;76819;49.098;11.826;2024-03-08T21:18:46;36.28;;;20.85;;
27019;SDS011;76819;49.098;11.826;2024-03-08T21:23:51;37.75;;;22.23;;
27019;SDS011;76819;49.098;11.826;2024-03-08T21:28:55;34.95;;;21.45;;
27019;SDS011;76819;49.098;11.826;2024-03-08T21:33:58;39.90;;;23.30;;
27019;SDS011;76819;49.098;11.826;2024-03-08T21:39:03;38.15;;;21.67;;
27019;SDS011;76819;49.098;11.826;2024-03-08T21:44:12;42.15;;;22.98;;
27019;SDS011;76819;49.098;11.826;2024-03-08T21:49:16;35.67;;;21.48;;
27019;SDS011;76819;49.098;11.826;2024-03-08T21:54:20;36.88;;;20.98;;
27019;SDS011;76819;49.098;11.826;2024-03-08T21:59:23;33.95;;;20.88;;
27019;SDS011;76819;49.098;11.826;2024-03-08T22:04:26;35.83;;;21.35;;
27019;SDS011;76819;49.098;11.826;2024-03-08T22:09:31;33.63;;;20.80;;
27019;SDS011;76819;49.098;11.826;2024-03-08T22:14:34;37.45;;;20.38;;
27019;SDS011;76819;49.098;11.826;2024-03-08T22:19:37;36.15;;;20.58;;
27019;SDS011;76819;49.098;11.826;2024-03-08T22:24:41;36.20;;;21.40;;
27019;SDS011;76819;49.098;11.826;2024-03-08T22:29:49;37.65;;;21.13;;
27019;SDS011;76819;49.098;11.826;2024-03-08T22:34:53;32.67;;;19.67;;
27019;SDS011;76819;49.098;11.826;2024-03-08T22:39:57;35.22;;;20.77;;
27019;SDS011;76819;49.098;11.826;2024-03-08T22:45:03;34.33;;;20.90;;
27019;SDS011;76819;49.098;11.826;2024-03-08T22:50:07;34.42;;;20.20;;
27019;SDS011;76819;49.098;11.826;2024-03-08T22:55:12;33.53;;;19.42;;
27019;SDS011;76819;49.098;11.826;2024-03-08T23:00:21;35.22;;;20.52;;
27019;SDS011;76819;49.098;11.826;2024-03-08T23:05:41;36.05;;;19.67;;
27019;SDS011;76819;49.098;11.826;2024-03-08T23:10:45;35.58;;;20.92;;
27019;SDS011;76819;49.098;11.826;2024-03-08T23:15:48;38.42;;;21.92;;
27019;SDS011;76819;49.098;11.826;2024-03-08T23:20:50;37.05;;;21.05;;
27019;SDS011;76819;49.098;11.826;2024-03-08T23:25:58;37.75;;;21.02;;
27019;SDS011;76819;49.098;11.826;2024-03-08T23:31:01;37.67;;;21.63;;
27019;SDS011;76819;49.098;11.826;2024-03-08T23:36:04;36.58;;;20.55;;
27019;SDS011;76819;49.098;11.826;2024-03-08T23:41:12;33.15;;;20.20;;
27019;SDS011;76819;49.098;11.826;2024-03-08T23:46:15;33.28;;;19.67;;
27019;SDS011;76819;49.098;11.826;2024-03-08T23:51:18;36.10;;;21.35;;
27019;SDS011;76819;49.098;11.826;2024-03-08T23:56:22;35.85;;;20.40;;
